createdAt,value
2022-11-21T00:09:49.851Z,36.30
2022-11-21T00:27:04.200Z,36.13
2022-11-21T00:32:39.322Z,36.83
2022-11-21T00:38:30.381Z,26.20
2022-11-21T00:50:31.374Z,48.28
2022-11-21T00:55:39.741Z,40.15
2022-11-21T01:01:01.983Z,25.00
2022-11-21T01:06:16.195Z,30.85
2022-11-21T01:22:15.650Z,21.10
2022-11-21T01:27:22.473Z,34.20
2022-11-21T01:32:25.739Z,37.90
2022-11-21T01:37:32.815Z,18.70
2022-11-21T01:48:57.200Z,32.00
2022-11-21T01:54:07.904Z,27.50
2022-11-21T01:59:38.071Z,22.88
2022-11-21T02:10:19.574Z,31.88
2022-11-21T02:15:41.188Z,38.60
2022-11-21T02:20:56.446Z,20.42
2022-11-21T02:26:03.344Z,21.65
2022-11-21T02:31:11.715Z,25.52
2022-11-21T02:37:07.024Z,19.35
2022-11-21T02:42:34.986Z,19.95
2022-11-21T02:53:49.316Z,40.80
2022-11-21T02:58:59.180Z,23.88
2022-11-21T03:04:08.360Z,22.05
2022-11-21T03:09:18.093Z,15.23
2022-11-21T03:14:24.028Z,13.93
2022-11-21T03:19:38.628Z,36.25
2022-11-21T03:24:47.432Z,26.13
2022-11-21T03:29:59.473Z,20.60
2022-11-21T03:35:36.293Z,18.63
2022-11-21T03:40:44.333Z,26.83
2022-11-21T03:45:48.358Z,28.02
2022-11-21T03:50:56.902Z,15.20
2022-11-21T03:56:06.314Z,24.73
2022-11-21T04:01:10.317Z,12.95
2022-11-21T04:06:19.776Z,22.13
2022-11-21T04:11:31.856Z,15.40
2022-11-21T04:16:50.953Z,17.55
2022-11-21T04:22:00.360Z,12.73
2022-11-21T04:27:10.819Z,19.95
2022-11-21T04:32:13.371Z,19.73
2022-11-21T04:42:58.403Z,27.52
2022-11-21T04:48:12.468Z,23.73
2022-11-21T04:53:41.508Z,22.70
2022-11-21T05:10:24.451Z,22.37
2022-11-21T05:15:33.923Z,23.65
2022-11-21T05:20:40.869Z,18.05
2022-11-21T05:26:13.161Z,13.73
2022-11-21T05:31:17.692Z,21.85
2022-11-21T05:36:23.204Z,16.60
2022-11-21T05:41:26.647Z,15.10
2022-11-21T05:46:58.420Z,8.63
2022-11-21T05:52:01.142Z,8.20
2022-11-21T05:57:06.911Z,5.75
2022-11-21T06:02:31.035Z,5.93
2022-11-21T06:07:38.584Z,10.43
2022-11-21T06:12:44.374Z,10.98
2022-11-21T06:17:46.560Z,7.20
2022-11-21T06:22:49.197Z,4.25
2022-11-21T06:27:54.768Z,4.95
2022-11-21T06:33:01.085Z,3.28
2022-11-21T06:38:07.061Z,7.63
2022-11-21T06:43:12.615Z,3.10
2022-11-21T06:48:17.938Z,3.35
2022-11-21T06:53:26.668Z,1.40
2022-11-21T06:58:34.919Z,5.65
2022-11-21T07:03:51.049Z,3.78
2022-11-21T07:14:31.830Z,2.88
2022-11-21T07:19:45.630Z,1.48
2022-11-21T07:25:22.292Z,1.55
2022-11-21T07:30:32.408Z,3.03
2022-11-21T07:35:58.617Z,7.55
2022-11-21T07:41:14.918Z,0.40
2022-11-21T07:46:21.125Z,2.13
2022-11-21T07:58:14.152Z,0.73
2022-11-21T08:03:22.697Z,0.80
2022-11-21T08:14:23.612Z,0.47
2022-11-21T08:19:31.923Z,0.10
2022-11-21T08:24:42.172Z,1.10
2022-11-21T08:29:49.698Z,2.60
2022-11-21T08:40:48.517Z,41.28
2022-11-21T08:46:15.383Z,46.78
2022-11-21T08:51:25.206Z,29.48
2022-11-21T08:57:17.881Z,44.42
2022-11-21T09:38:01.163Z,29.90
2022-11-21T09:43:29.118Z,36.63
2022-11-21T09:49:16.430Z,24.02
2022-11-21T09:54:54.820Z,28.05
2022-11-21T10:00:03.777Z,22.48
2022-11-21T10:05:59.200Z,36.17
2022-11-21T10:12:01.186Z,21.05
2022-11-21T10:17:48.168Z,34.57
2022-11-21T10:34:31.068Z,15.48
2022-11-21T10:39:52.398Z,26.73
2022-11-21T10:45:25.502Z,28.40
2022-11-21T10:51:25.122Z,21.52
2022-11-21T10:56:28.758Z,17.75
2022-11-21T11:01:36.805Z,20.75
2022-11-21T11:06:54.493Z,23.35
2022-11-21T11:12:51.669Z,17.15
2022-11-21T11:18:12.201Z,25.17
2022-11-21T11:28:57.270Z,13.73
2022-11-21T12:05:30.757Z,11.38
2022-11-21T12:35:26.398Z,11.05
2022-11-21T13:00:55.135Z,10.73
2022-11-21T13:14:00.394Z,5.60
2022-11-21T13:24:59.510Z,15.75
2022-11-21T13:30:33.050Z,10.68
2022-11-21T13:36:23.339Z,28.65
2022-11-21T14:06:28.217Z,16.52
2022-11-21T14:12:08.164Z,13.40
2022-11-21T14:25:17.438Z,3.20
2022-11-21T14:31:09.753Z,3.28
2022-11-21T15:00:59.535Z,3.95
2022-11-21T15:07:12.290Z,3.60
2022-11-21T15:19:55.495Z,10.77
2022-11-21T15:42:41.589Z,10.85
2022-11-21T16:01:14.958Z,4.47
2022-11-21T16:20:19.691Z,17.23
2022-11-21T18:23:04.457Z,16.52
2022-11-21T18:52:07.231Z,8.60
2022-11-21T18:57:24.960Z,12.85
2022-11-21T19:03:00.546Z,22.10
2022-11-21T19:15:06.937Z,13.75
2022-11-21T19:20:39.451Z,20.88
2022-11-21T19:26:19.530Z,14.07
2022-11-21T19:31:40.680Z,6.72
2022-11-21T19:37:26.333Z,16.30
2022-11-21T19:42:47.195Z,19.85
2022-11-21T19:53:36.577Z,14.63
2022-11-21T20:04:21.283Z,4.07
2022-11-21T20:09:34.557Z,8.90
2022-11-21T20:14:55.228Z,11.15
2022-11-21T20:25:51.854Z,12.82
2022-11-21T20:31:28.175Z,11.38
2022-11-21T20:42:20.161Z,10.05
2022-11-21T20:47:36.741Z,8.30
2022-11-21T20:58:12.325Z,10.75
2022-11-21T21:03:22.662Z,4.28
2022-11-21T21:14:05.627Z,17.48
2022-11-21T21:19:21.549Z,13.73
2022-11-21T21:24:28.588Z,16.77
2022-11-21T21:29:36.968Z,10.35
2022-11-21T21:34:45.853Z,24.20
2022-11-21T21:39:54.552Z,8.98
2022-11-21T21:45:01.530Z,18.45
2022-11-21T21:50:14.379Z,10.18
2022-11-21T21:55:24.161Z,6.43
2022-11-21T22:00:30.832Z,8.13
2022-11-21T22:06:06.929Z,16.67
2022-11-21T22:11:16.221Z,16.67
2022-11-21T22:16:20.362Z,12.43
2022-11-21T22:21:36.127Z,13.98
2022-11-21T22:26:44.076Z,18.95
2022-11-21T22:32:09.697Z,16.17
2022-11-21T22:37:22.213Z,35.00
2022-11-21T22:42:26.337Z,15.73
2022-11-21T22:47:34.646Z,17.98
2022-11-21T22:52:42.992Z,20.53
2022-11-21T22:58:16.560Z,26.77
2022-11-21T23:09:18.511Z,27.70
2022-11-21T23:14:27.079Z,30.67
2022-11-21T23:19:36.254Z,16.10
2022-11-21T23:31:15.756Z,8.98
2022-11-21T23:36:29.116Z,8.93
2022-11-21T23:46:41.919Z,11.90
2022-11-21T23:51:47.511Z,11.07
